PWSweather.com
Personal Weather Stations
Station Observations
WD4JKH
Forsyth, GA 31029

Forsyth, GA 31029

Lat: 33.033225, Lon: -83.927995

Elevation: 709

Station Type: Davis Vantage VUE

High Low Average
Temperature 60.9°F16.1°C 44.8°F7.1°C 51.1°F10.6°C
Dew Point 41.4°F5.2°C 36.2°F2.3°C 39.4°F4.1°C
Winds 12.3 mph 19.8 kmh 1.4 mph 2.3 kmh 5.0 mph WNW8.0 kmh WNW
Wind Gusts 22.0 mph35.4 kmh 5.0 mph8.0 kmh 14.0 mph22.5 kmh
Humidity 84% 43% 66%
Pressure 30.13 in1020.3 mb 29.86 in1011.2 mb -
Precipitation 0.00 in0.0 mm - -
Hour Temp Dew Point Humidity Winds Wind Gusts Pressure Precip Precip Rate Daily Precip Total
12:03 AM 46.9°F8.3°C 41.4°F5.2°C 81% 2.5 mph WSW4.0 kmh WSW 11.0 mph17.7 kmh 29.86 in1011.2 mb 0.00 in0.0 mm 0.00 in0.0 mm 0.00 in0.0 mm
12:08 AM 46.9°F8.3°C 41.4°F5.2°C 81% 2.2 mph SW3.5 kmh SW 11.0 mph17.7 kmh 29.87 in1011.5 mb 0.00 in0.0 mm 0.00 in0.0 mm 0.00 in0.0 mm
12:13 AM 46.8°F8.2°C 41.3°F5.2°C 81% 5.7 mph W9.2 kmh W 11.0 mph17.7 kmh 29.87 in1011.5 mb 0.00 in0.0 mm 0.00 in0.0 mm 0.00 in0.0 mm
12:18 AM 46.8°F8.2°C 41.0°F5.0°C 80% 5.6 mph WSW9.0 kmh WSW 10.0 mph16.1 kmh 29.86 in1011.2 mb 0.00 in0.0 mm 0.00 in0.0 mm 0.00 in0.0 mm
12:23 AM 46.8°F8.2°C 41.0°F5.0°C 80% 6.8 mph WSW10.9 kmh WSW 12.0 mph19.3 kmh 29.86 in1011.2 mb 0.00 in0.0 mm 0.00 in0.0 mm 0.00 in0.0 mm
12:28 AM 46.8°F8.2°C 41.0°F5.0°C 80% 4.2 mph WSW6.8 kmh WSW 13.0 mph20.9 kmh 29.86 in1011.2 mb 0.00 in0.0 mm 0.00 in0.0 mm 0.00 in0.0 mm
12:32 AM 46.7°F8.2°C 40.9°F4.9°C 80% 5.6 mph WSW9.0 kmh WSW 16.0 mph25.7 kmh 29.86 in1011.2 mb 0.00 in0.0 mm 0.00 in0.0 mm 0.00 in0.0 mm
12:37 AM 46.7°F8.2°C 40.9°F4.9°C 80% 3.3 mph WSW5.3 kmh WSW 16.0 mph25.7 kmh 29.86 in1011.2 mb 0.00 in0.0 mm 0.00 in0.0 mm 0.00 in0.0 mm
12:42 AM 46.7°F8.2°C 40.5°F4.7°C 79% 6.4 mph WSW10.3 kmh WSW 16.0 mph25.7 kmh 29.86 in1011.2 mb 0.00 in0.0 mm 0.00 in0.0 mm 0.00 in0.0 mm
12:47 AM 46.7°F8.2°C 40.6°F4.8°C 79% 4.0 mph WSW6.4 kmh WSW 16.0 mph25.7 kmh 29.86 in1011.2 mb 0.00 in0.0 mm 0.00 in0.0 mm 0.00 in0.0 mm
12:52 AM 46.6°F8.1°C 40.5°F4.7°C 79% 5.4 mph WSW8.7 kmh WSW 15.0 mph24.1 kmh 29.86 in1011.2 mb 0.00 in0.0 mm 0.00 in0.0 mm 0.00 in0.0 mm
12:57 AM 46.6°F8.1°C 40.5°F4.7°C 79% 5.3 mph WSW8.5 kmh WSW 15.0 mph24.1 kmh 29.86 in1011.2 mb 0.00 in0.0 mm 0.00 in0.0 mm 0.00 in0.0 mm
01:02 AM 46.5°F8.1°C 40.7°F4.8°C 80% 2.9 mph WSW4.7 kmh WSW 15.0 mph24.1 kmh 29.86 in1011.2 mb 0.00 in0.0 mm 0.00 in0.0 mm 0.00 in0.0 mm
01:07 AM 46.5°F8.1°C 40.3°F4.6°C 79% 5.5 mph WSW8.9 kmh WSW 13.0 mph20.9 kmh 29.87 in1011.5 mb 0.00 in0.0 mm 0.00 in0.0 mm 0.00 in0.0 mm
01:12 AM 46.5°F8.1°C 40.4°F4.7°C 79% 3.2 mph WSW5.1 kmh WSW 13.0 mph20.9 kmh 29.87 in1011.5 mb 0.00 in0.0 mm 0.00 in0.0 mm 0.00 in0.0 mm
01:17 AM 46.5°F8.1°C 40.4°F4.7°C 79% 3.7 mph W6.0 kmh W 11.0 mph17.7 kmh 29.88 in1011.9 mb 0.00 in0.0 mm 0.00 in0.0 mm 0.00 in0.0 mm
01:22 AM 46.5°F8.1°C 40.4°F4.7°C 79% 5.9 mph WSW9.5 kmh WSW 13.0 mph20.9 kmh 29.88 in1011.9 mb 0.00 in0.0 mm 0.00 in0.0 mm 0.00 in0.0 mm
01:27 AM 46.5°F8.1°C 40.4°F4.7°C 79% 4.2 mph W6.8 kmh W 13.0 mph20.9 kmh 29.88 in1011.9 mb 0.00 in0.0 mm 0.00 in0.0 mm 0.00 in0.0 mm
01:32 AM 46.5°F8.1°C 40.0°F4.4°C 78% 7.3 mph W11.7 kmh W 18.0 mph29.0 kmh 29.88 in1011.9 mb 0.00 in0.0 mm 0.00 in0.0 mm 0.00 in0.0 mm
01:37 AM 46.5°F8.1°C 40.4°F4.7°C 79% 4.3 mph W6.9 kmh W 18.0 mph29.0 kmh 29.88 in1011.9 mb 0.00 in0.0 mm 0.00 in0.0 mm 0.00 in0.0 mm
01:42 AM 46.4°F8.0°C 40.3°F4.6°C 79% 3.5 mph WSW5.6 kmh WSW 18.0 mph29.0 kmh 29.88 in1011.9 mb 0.00 in0.0 mm 0.00 in0.0 mm 0.00 in0.0 mm
01:47 AM 46.4°F8.0°C 40.3°F4.6°C 79% 5.1 mph W8.2 kmh W 18.0 mph29.0 kmh 29.88 in1011.9 mb 0.00 in0.0 mm 0.00 in0.0 mm 0.00 in0.0 mm
01:52 AM 46.4°F8.0°C 40.0°F4.4°C 78% 5.3 mph W8.5 kmh W 14.0 mph22.5 kmh 29.88 in1011.9 mb 0.00 in0.0 mm 0.00 in0.0 mm 0.00 in0.0 mm
01:57 AM 46.4°F8.0°C 40.3°F4.6°C 79% 3.6 mph WSW5.8 kmh WSW 14.0 mph22.5 kmh 29.88 in1011.9 mb 0.00 in0.0 mm 0.00 in0.0 mm 0.00 in0.0 mm
02:02 AM 46.3°F7.9°C 40.2°F4.6°C 79% 4.3 mph W6.9 kmh W 14.0 mph22.5 kmh 29.88 in1011.9 mb 0.00 in0.0 mm 0.00 in0.0 mm 0.00 in0.0 mm
02:07 AM 46.3°F7.9°C 40.2°F4.6°C 79% 5.5 mph WSW8.9 kmh WSW 14.0 mph22.5 kmh 29.88 in1011.9 mb 0.00 in0.0 mm 0.00 in0.0 mm 0.00 in0.0 mm
02:12 AM 46.3°F7.9°C 40.2°F4.6°C 79% 4.5 mph W7.2 kmh W 14.0 mph22.5 kmh 29.88 in1011.9 mb 0.00 in0.0 mm 0.00 in0.0 mm 0.00 in0.0 mm
02:17 AM 46.2°F7.9°C 39.8°F4.3°C 78% 6.2 mph WSW10.0 kmh WSW 14.0 mph22.5 kmh 29.88 in1011.9 mb 0.00 in0.0 mm 0.00 in0.0 mm 0.00 in0.0 mm
02:22 AM 46.2°F7.9°C 39.8°F4.3°C 78% 6.9 mph WSW11.1 kmh WSW 17.0 mph27.4 kmh 29.88 in1011.9 mb 0.00 in0.0 mm 0.00 in0.0 mm 0.00 in0.0 mm
02:27 AM 46.2°F7.9°C 39.7°F4.3°C 78% 8.1 mph WSW13.0 kmh WSW 17.0 mph27.4 kmh 29.88 in1011.9 mb 0.00 in0.0 mm 0.00 in0.0 mm 0.00 in0.0 mm
02:32 AM 46.2°F7.9°C 39.4°F4.1°C 77% 7.3 mph WSW11.7 kmh WSW 17.0 mph27.4 kmh 29.88 in1011.9 mb 0.00 in0.0 mm 0.00 in0.0 mm 0.00 in0.0 mm
02:37 AM 46.2°F7.9°C 39.8°F4.3°C 78% 6.9 mph WSW11.1 kmh WSW 16.0 mph25.7 kmh 29.89 in1012.2 mb 0.00 in0.0 mm 0.00 in0.0 mm 0.00 in0.0 mm
02:42 AM 46.2°F7.9°C 39.8°F4.3°C 78% 4.8 mph W7.7 kmh W 18.0 mph29.0 kmh 29.88 in1011.9 mb 0.00 in0.0 mm 0.00 in0.0 mm 0.00 in0.0 mm
02:47 AM 46.1°F7.8°C 39.7°F4.3°C 78% 4.7 mph W7.6 kmh W 18.0 mph29.0 kmh 29.89 in1012.2 mb 0.00 in0.0 mm 0.00 in0.0 mm 0.00 in0.0 mm
02:52 AM 46.1°F7.8°C 40.0°F4.4°C 79% 4.6 mph WSW7.4 kmh WSW 18.0 mph29.0 kmh 29.89 in1012.2 mb 0.00 in0.0 mm 0.00 in0.0 mm 0.00 in0.0 mm
02:57 AM 46.0°F7.8°C 39.9°F4.4°C 79% 3.4 mph W5.5 kmh W 17.0 mph27.4 kmh 29.89 in1012.2 mb 0.00 in0.0 mm 0.00 in0.0 mm 0.00 in0.0 mm
03:02 AM 46.0°F7.8°C 39.9°F4.4°C 79% 5.8 mph W9.3 kmh W 15.0 mph24.1 kmh 29.89 in1012.2 mb 0.00 in0.0 mm 0.00 in0.0 mm 0.00 in0.0 mm
03:07 AM 46.0°F7.8°C 39.9°F4.4°C 79% 7.7 mph W12.4 kmh W 16.0 mph25.7 kmh 29.89 in1012.2 mb 0.00 in0.0 mm 0.00 in0.0 mm 0.00 in0.0 mm
03:12 AM 45.9°F7.7°C 40.1°F4.5°C 80% 5.1 mph WSW8.2 kmh WSW 16.0 mph25.7 kmh 29.89 in1012.2 mb 0.00 in0.0 mm 0.00 in0.0 mm 0.00 in0.0 mm
03:17 AM 45.9°F7.7°C 40.1°F4.5°C 80% 3.1 mph WSW5.0 kmh WSW 16.0 mph25.7 kmh 29.89 in1012.2 mb 0.00 in0.0 mm 0.00 in0.0 mm 0.00 in0.0 mm
03:22 AM 45.8°F7.7°C 40.0°F4.4°C 80% 5.2 mph WSW8.4 kmh WSW 15.0 mph24.1 kmh 29.89 in1012.2 mb 0.00 in0.0 mm 0.00 in0.0 mm 0.00 in0.0 mm
03:27 AM 45.8°F7.7°C 40.0°F4.4°C 80% 3.5 mph WNW5.6 kmh WNW 12.0 mph19.3 kmh 29.89 in1012.2 mb 0.00 in0.0 mm 0.00 in0.0 mm 0.00 in0.0 mm
03:32 AM 45.9°F7.7°C 39.8°F4.3°C 79% 8.6 mph W13.8 kmh W 14.0 mph22.5 kmh 29.89 in1012.2 mb 0.00 in0.0 mm 0.00 in0.0 mm 0.00 in0.0 mm
03:37 AM 45.9°F7.7°C 39.8°F4.3°C 79% 6.1 mph W9.8 kmh W 14.0 mph22.5 kmh 29.89 in1012.2 mb 0.00 in0.0 mm 0.00 in0.0 mm 0.00 in0.0 mm
03:42 AM 45.9°F7.7°C 40.1°F4.5°C 80% 6.9 mph W11.1 kmh W 16.0 mph25.7 kmh 29.90 in1012.5 mb 0.00 in0.0 mm 0.00 in0.0 mm 0.00 in0.0 mm
03:47 AM 45.8°F7.7°C 40.0°F4.4°C 80% 7.3 mph W11.7 kmh W 16.0 mph25.7 kmh 29.90 in1012.5 mb 0.00 in0.0 mm 0.00 in0.0 mm 0.00 in0.0 mm
03:52 AM 45.7°F7.6°C 39.9°F4.4°C 80% 4.5 mph WSW7.2 kmh WSW 16.0 mph25.7 kmh 29.90 in1012.5 mb 0.00 in0.0 mm 0.00 in0.0 mm 0.00 in0.0 mm
03:57 AM 45.7°F7.6°C 40.2°F4.6°C 81% 5.9 mph W9.5 kmh W 16.0 mph25.7 kmh 29.90 in1012.5 mb 0.00 in0.0 mm 0.00 in0.0 mm 0.00 in0.0 mm
04:02 AM 45.6°F7.6°C 40.1°F4.5°C 81% 8.3 mph W13.4 kmh W 16.0 mph25.7 kmh 29.90 in1012.5 mb 0.00 in0.0 mm 0.00 in0.0 mm 0.00 in0.0 mm
04:07 AM 45.5°F7.5°C 40.0°F4.4°C 81% 5.4 mph W8.7 kmh W 16.0 mph25.7 kmh 29.90 in1012.5 mb 0.00 in0.0 mm 0.00 in0.0 mm 0.00 in0.0 mm
04:12 AM 45.5°F7.5°C 40.0°F4.4°C 81% 7.3 mph W11.7 kmh W 16.0 mph25.7 kmh 29.90 in1012.5 mb 0.00 in0.0 mm 0.00 in0.0 mm 0.00 in0.0 mm
04:17 AM 45.5°F7.5°C 40.3°F4.6°C 82% 4.6 mph W7.4 kmh W 16.0 mph25.7 kmh 29.90 in1012.5 mb 0.00 in0.0 mm 0.00 in0.0 mm 0.00 in0.0 mm
04:22 AM 45.4°F7.4°C 40.2°F4.6°C 82% 4.6 mph W7.4 kmh W 13.0 mph20.9 kmh 29.90 in1012.5 mb 0.00 in0.0 mm 0.00 in0.0 mm 0.00 in0.0 mm
04:27 AM 45.3°F7.4°C 40.1°F4.5°C 82% 3.6 mph W5.8 kmh W 18.0 mph29.0 kmh 29.90 in1012.5 mb 0.00 in0.0 mm 0.00 in0.0 mm 0.00 in0.0 mm
04:32 AM 45.3°F7.4°C 40.4°F4.7°C 83% 5.0 mph W8.0 kmh W 18.0 mph29.0 kmh 29.90 in1012.5 mb 0.00 in0.0 mm 0.00 in0.0 mm 0.00 in0.0 mm
04:37 AM 45.2°F7.3°C 40.3°F4.6°C 83% 8.6 mph W13.8 kmh W 18.0 mph29.0 kmh 29.91 in1012.9 mb 0.00 in0.0 mm 0.00 in0.0 mm 0.00 in0.0 mm
04:42 AM 45.2°F7.3°C 40.3°F4.6°C 83% 5.5 mph W8.9 kmh W 18.0 mph29.0 kmh 29.91 in1012.9 mb 0.00 in0.0 mm 0.00 in0.0 mm 0.00 in0.0 mm
04:47 AM 45.1°F7.3°C 39.9°F4.4°C 82% 9.3 mph WNW15.0 kmh WNW 20.0 mph32.2 kmh 29.91 in1012.9 mb 0.00 in0.0 mm 0.00 in0.0 mm 0.00 in0.0 mm
04:52 AM 45.2°F7.3°C 40.0°F4.4°C 82% 6.2 mph WNW10.0 kmh WNW 20.0 mph32.2 kmh 29.91 in1012.9 mb 0.00 in0.0 mm 0.00 in0.0 mm 0.00 in0.0 mm
04:57 AM 45.2°F7.3°C 39.7°F4.3°C 81% 6.0 mph WNW9.7 kmh WNW 20.0 mph32.2 kmh 29.91 in1012.9 mb 0.00 in0.0 mm 0.00 in0.0 mm 0.00 in0.0 mm
05:02 AM 45.1°F7.3°C 39.6°F4.2°C 81% 7.1 mph WNW11.4 kmh WNW 20.0 mph32.2 kmh 29.91 in1012.9 mb 0.00 in0.0 mm 0.00 in0.0 mm 0.00 in0.0 mm
05:07 AM 45.2°F7.3°C 39.7°F4.3°C 81% 9.3 mph W15.0 kmh W 16.0 mph25.7 kmh 29.91 in1012.9 mb 0.00 in0.0 mm 0.00 in0.0 mm 0.00 in0.0 mm
05:12 AM 45.1°F7.3°C 39.9°F4.4°C 82% 8.1 mph W13.0 kmh W 17.0 mph27.4 kmh 29.91 in1012.9 mb 0.00 in0.0 mm 0.00 in0.0 mm 0.00 in0.0 mm
05:17 AM 45.1°F7.3°C 40.2°F4.6°C 83% 5.4 mph W8.7 kmh W 17.0 mph27.4 kmh 29.92 in1013.2 mb 0.00 in0.0 mm 0.00 in0.0 mm 0.00 in0.0 mm
05:22 AM 45.0°F7.2°C 40.1°F4.5°C 83% 7.1 mph WNW11.4 kmh WNW 17.0 mph27.4 kmh 29.92 in1013.2 mb 0.00 in0.0 mm 0.00 in0.0 mm 0.00 in0.0 mm
05:27 AM 45.0°F7.2°C 40.1°F4.5°C 83% 5.2 mph WNW8.4 kmh WNW 16.0 mph25.7 kmh 29.92 in1013.2 mb 0.00 in0.0 mm 0.00 in0.0 mm 0.00 in0.0 mm
05:32 AM 45.0°F7.2°C 40.1°F4.5°C 83% 7.6 mph WNW12.2 kmh WNW 19.0 mph30.6 kmh 29.92 in1013.2 mb 0.00 in0.0 mm 0.00 in0.0 mm 0.00 in0.0 mm
05:37 AM 44.9°F7.2°C 40.0°F4.4°C 83% 7.3 mph WNW11.7 kmh WNW 19.0 mph30.6 kmh 29.92 in1013.2 mb 0.00 in0.0 mm 0.00 in0.0 mm 0.00 in0.0 mm
05:42 AM 44.9°F7.2°C 40.1°F4.5°C 83% 8.9 mph WNW14.3 kmh WNW 19.0 mph30.6 kmh 29.93 in1013.5 mb 0.00 in0.0 mm 0.00 in0.0 mm 0.00 in0.0 mm
05:47 AM 44.9°F7.2°C 40.1°F4.5°C 83% 8.7 mph W14.0 kmh W 22.0 mph35.4 kmh 29.93 in1013.5 mb 0.00 in0.0 mm 0.00 in0.0 mm 0.00 in0.0 mm
05:52 AM 44.9°F7.2°C 40.1°F4.5°C 83% 7.9 mph WNW12.7 kmh WNW 22.0 mph35.4 kmh 29.93 in1013.5 mb 0.00 in0.0 mm 0.00 in0.0 mm 0.00 in0.0 mm
05:57 AM 44.9°F7.2°C 40.1°F4.5°C 83% 9.8 mph WNW15.8 kmh WNW 22.0 mph35.4 kmh 29.93 in1013.5 mb 0.00 in0.0 mm 0.00 in0.0 mm 0.00 in0.0 mm
06:02 AM 44.9°F7.2°C 40.1°F4.5°C 83% 12.3 mph W19.8 kmh W 22.0 mph35.4 kmh 29.93 in1013.5 mb 0.00 in0.0 mm 0.00 in0.0 mm 0.00 in0.0 mm
06:07 AM 44.9°F7.2°C 40.0°F4.4°C 83% 7.4 mph WNW11.9 kmh WNW 22.0 mph35.4 kmh 29.93 in1013.5 mb 0.00 in0.0 mm 0.00 in0.0 mm 0.00 in0.0 mm
06:12 AM 44.9°F7.2°C 40.1°F4.5°C 83% 7.5 mph W12.1 kmh W 22.0 mph35.4 kmh 29.93 in1013.5 mb 0.00 in0.0 mm 0.00 in0.0 mm 0.00 in0.0 mm
06:17 AM 44.9°F7.2°C 40.1°F4.5°C 83% 7.7 mph WNW12.4 kmh WNW 19.0 mph30.6 kmh 29.93 in1013.5 mb 0.00 in0.0 mm 0.00 in0.0 mm 0.00 in0.0 mm
06:22 AM 44.9°F7.2°C 40.1°F4.5°C 83% 4.3 mph W6.9 kmh W 16.0 mph25.7 kmh 29.93 in1013.5 mb 0.00 in0.0 mm 0.00 in0.0 mm 0.00 in0.0 mm
06:27 AM 44.9°F7.2°C 40.4°F4.7°C 84% 5.2 mph WNW8.4 kmh WNW 16.0 mph25.7 kmh 29.94 in1013.9 mb 0.00 in0.0 mm 0.00 in0.0 mm 0.00 in0.0 mm
06:31 AM 44.8°F7.1°C 40.3°F4.6°C 84% 4.9 mph WNW7.9 kmh WNW 16.0 mph25.7 kmh 29.94 in1013.9 mb 0.00 in0.0 mm 0.00 in0.0 mm 0.00 in0.0 mm
06:36 AM 44.9°F7.2°C 40.4°F4.7°C 84% 6.1 mph NW9.8 kmh NW 13.0 mph20.9 kmh 29.94 in1013.9 mb 0.00 in0.0 mm 0.00 in0.0 mm 0.00 in0.0 mm
06:41 AM 44.9°F7.2°C 40.4°F4.7°C 84% 5.1 mph WNW8.2 kmh WNW 12.0 mph19.3 kmh 29.95 in1014.2 mb 0.00 in0.0 mm 0.00 in0.0 mm 0.00 in0.0 mm
06:46 AM 44.9°F7.2°C 40.1°F4.5°C 83% 4.3 mph WNW6.9 kmh WNW 12.0 mph19.3 kmh 29.95 in1014.2 mb 0.00 in0.0 mm 0.00 in0.0 mm 0.00 in0.0 mm
06:51 AM 44.9°F7.2°C 40.1°F4.5°C 83% 5.3 mph WNW8.5 kmh WNW 11.0 mph17.7 kmh 29.95 in1014.2 mb 0.00 in0.0 mm 0.00 in0.0 mm 0.00 in0.0 mm
06:56 AM 44.9°F7.2°C 40.1°F4.5°C 83% 6.4 mph W10.3 kmh W 12.0 mph19.3 kmh 29.95 in1014.2 mb 0.00 in0.0 mm 0.00 in0.0 mm 0.00 in0.0 mm
07:01 AM 44.9°F7.2°C 40.0°F4.4°C 83% 3.9 mph WNW6.3 kmh WNW 13.0 mph20.9 kmh 29.96 in1014.6 mb 0.00 in0.0 mm 0.00 in0.0 mm 0.00 in0.0 mm
07:06 AM 45.0°F7.2°C 40.1°F4.5°C 83% 4.3 mph WNW6.9 kmh WNW 13.0 mph20.9 kmh 29.96 in1014.6 mb 0.00 in0.0 mm 0.00 in0.0 mm 0.00 in0.0 mm
07:11 AM 45.0°F7.2°C 40.1°F4.5°C 83% 6.3 mph WNW10.1 kmh WNW 13.0 mph20.9 kmh 29.96 in1014.6 mb 0.00 in0.0 mm 0.00 in0.0 mm 0.00 in0.0 mm
07:16 AM 45.0°F7.2°C 40.1°F4.5°C 83% 4.5 mph WNW7.2 kmh WNW 13.0 mph20.9 kmh 29.96 in1014.6 mb 0.00 in0.0 mm 0.00 in0.0 mm 0.00 in0.0 mm
07:21 AM 45.0°F7.2°C 40.1°F4.5°C 83% 6.9 mph WNW11.1 kmh WNW 13.0 mph20.9 kmh 29.96 in1014.6 mb 0.00 in0.0 mm 0.00 in0.0 mm 0.00 in0.0 mm
07:26 AM 45.0°F7.2°C 40.1°F4.5°C 83% 6.5 mph WNW10.5 kmh WNW 14.0 mph22.5 kmh 29.96 in1014.6 mb 0.00 in0.0 mm 0.00 in0.0 mm 0.00 in0.0 mm
07:31 AM 45.0°F7.2°C 40.1°F4.5°C 83% 5.5 mph WNW8.9 kmh WNW 14.0 mph22.5 kmh 29.96 in1014.6 mb 0.00 in0.0 mm 0.00 in0.0 mm 0.00 in0.0 mm
07:36 AM 45.0°F7.2°C 39.8°F4.3°C 82% 7.2 mph WNW11.6 kmh WNW 16.0 mph25.7 kmh 29.97 in1014.9 mb 0.00 in0.0 mm 0.00 in0.0 mm 0.00 in0.0 mm
07:41 AM 45.0°F7.2°C 39.8°F4.3°C 82% 5.7 mph WNW9.2 kmh WNW 16.0 mph25.7 kmh 29.97 in1014.9 mb 0.00 in0.0 mm 0.00 in0.0 mm 0.00 in0.0 mm
07:46 AM 45.1°F7.3°C 39.9°F4.4°C 82% 6.8 mph WNW10.9 kmh WNW 16.0 mph25.7 kmh 29.97 in1014.9 mb 0.00 in0.0 mm 0.00 in0.0 mm 0.00 in0.0 mm
07:51 AM 44.9°F7.2°C 40.1°F4.5°C 83% 4.2 mph WNW6.8 kmh WNW 16.0 mph25.7 kmh 29.98 in1015.2 mb 0.00 in0.0 mm 0.00 in0.0 mm 0.00 in0.0 mm
07:56 AM 44.9°F7.2°C 39.7°F4.3°C 82% 5.5 mph WNW8.9 kmh WNW 16.0 mph25.7 kmh 29.98 in1015.2 mb 0.00 in0.0 mm 0.00 in0.0 mm 0.00 in0.0 mm
08:01 AM 44.9°F7.2°C 40.0°F4.4°C 83% 4.0 mph WNW6.4 kmh WNW 16.0 mph25.7 kmh 29.98 in1015.2 mb 0.00 in0.0 mm 0.00 in0.0 mm 0.00 in0.0 mm
08:06 AM 45.0°F7.2°C 40.1°F4.5°C 83% 5.2 mph WNW8.4 kmh WNW 13.0 mph20.9 kmh 29.98 in1015.2 mb 0.00 in0.0 mm 0.00 in0.0 mm 0.00 in0.0 mm
08:11 AM 45.1°F7.3°C 39.9°F4.4°C 82% 4.1 mph WNW6.6 kmh WNW 13.0 mph20.9 kmh 29.98 in1015.2 mb 0.00 in0.0 mm 0.00 in0.0 mm 0.00 in0.0 mm
08:16 AM 45.1°F7.3°C 40.2°F4.6°C 83% 2.4 mph WNW3.9 kmh WNW 12.0 mph19.3 kmh 29.99 in1015.6 mb 0.00 in0.0 mm 0.00 in0.0 mm 0.00 in0.0 mm
08:21 AM 45.2°F7.3°C 40.3°F4.6°C 83% 3.7 mph WNW6.0 kmh WNW 12.0 mph19.3 kmh 29.99 in1015.6 mb 0.00 in0.0 mm 0.00 in0.0 mm 0.00 in0.0 mm
08:26 AM 45.3°F7.4°C 40.1°F4.5°C 82% 6.6 mph WNW10.6 kmh WNW 12.0 mph19.3 kmh 29.99 in1015.6 mb 0.00 in0.0 mm 0.00 in0.0 mm 0.00 in0.0 mm
08:31 AM 45.4°F7.4°C 40.2°F4.6°C 82% 4.5 mph W7.2 kmh W 16.0 mph25.7 kmh 30.00 in1015.9 mb 0.00 in0.0 mm 0.00 in0.0 mm 0.00 in0.0 mm
08:36 AM 45.5°F7.5°C 40.3°F4.6°C 82% 3.3 mph WNW5.3 kmh WNW 16.0 mph25.7 kmh 30.00 in1015.9 mb 0.00 in0.0 mm 0.00 in0.0 mm 0.00 in0.0 mm
08:41 AM 45.6°F7.6°C 40.4°F4.7°C 82% 9.9 mph WNW15.9 kmh WNW 16.0 mph25.7 kmh 30.00 in1015.9 mb 0.00 in0.0 mm 0.00 in0.0 mm 0.00 in0.0 mm
08:46 AM 45.8°F7.7°C 40.6°F4.8°C 82% 5.4 mph WNW8.7 kmh WNW 16.0 mph25.7 kmh 30.01 in1016.3 mb 0.00 in0.0 mm 0.00 in0.0 mm 0.00 in0.0 mm
08:51 AM 45.9°F7.7°C 40.7°F4.8°C 82% 3.6 mph WNW5.8 kmh WNW 15.0 mph24.1 kmh 30.01 in1016.3 mb 0.00 in0.0 mm 0.00 in0.0 mm 0.00 in0.0 mm
08:56 AM 46.1°F7.8°C 40.6°F4.8°C 81% 5.8 mph WNW9.3 kmh WNW 15.0 mph24.1 kmh 30.01 in1016.3 mb 0.00 in0.0 mm 0.00 in0.0 mm 0.00 in0.0 mm
09:01 AM 46.4°F8.0°C 40.9°F4.9°C 81% 5.5 mph WNW8.9 kmh WNW 14.0 mph22.5 kmh 30.01 in1016.3 mb 0.00 in0.0 mm 0.00 in0.0 mm 0.00 in0.0 mm
09:06 AM 46.4°F8.0°C 40.9°F4.9°C 81% 4.7 mph WNW7.6 kmh WNW 16.0 mph25.7 kmh 30.02 in1016.6 mb 0.00 in0.0 mm 0.00 in0.0 mm 0.00 in0.0 mm
09:11 AM 46.6°F8.1°C 41.1°F5.1°C 81% 8.1 mph WNW13.0 kmh WNW 16.0 mph25.7 kmh 30.02 in1016.6 mb 0.00 in0.0 mm 0.00 in0.0 mm 0.00 in0.0 mm
09:16 AM 46.8°F8.2°C 41.0°F5.0°C 80% 2.9 mph NW4.7 kmh NW 16.0 mph25.7 kmh 30.03 in1016.9 mb 0.00 in0.0 mm 0.00 in0.0 mm 0.00 in0.0 mm
09:21 AM 47.0°F8.3°C 41.2°F5.1°C 80% 4.6 mph NW7.4 kmh NW 16.0 mph25.7 kmh 30.03 in1016.9 mb 0.00 in0.0 mm 0.00 in0.0 mm 0.00 in0.0 mm
09:26 AM 47.3°F8.5°C 41.2°F5.1°C 79% 5.0 mph NW8.0 kmh NW 15.0 mph24.1 kmh 30.03 in1016.9 mb 0.00 in0.0 mm 0.00 in0.0 mm 0.00 in0.0 mm
09:31 AM 47.3°F8.5°C 40.5°F4.7°C 77% 9.9 mph NW15.9 kmh NW 16.0 mph25.7 kmh 30.03 in1016.9 mb 0.00 in0.0 mm 0.00 in0.0 mm 0.00 in0.0 mm
09:36 AM 47.5°F8.6°C 41.0°F5.0°C 78% 4.4 mph NW7.1 kmh NW 16.0 mph25.7 kmh 30.04 in1017.3 mb 0.00 in0.0 mm 0.00 in0.0 mm 0.00 in0.0 mm
09:41 AM 47.5°F8.6°C 40.4°F4.7°C 76% 8.5 mph NW13.7 kmh NW 17.0 mph27.4 kmh 30.04 in1017.3 mb 0.00 in0.0 mm 0.00 in0.0 mm 0.00 in0.0 mm
09:46 AM 47.7°F8.7°C 40.8°F4.9°C 77% 4.1 mph NW6.6 kmh NW 17.0 mph27.4 kmh 30.04 in1017.3 mb 0.00 in0.0 mm 0.00 in0.0 mm 0.00 in0.0 mm
09:51 AM 47.9°F8.8°C 40.8°F4.9°C 76% 5.3 mph WNW8.5 kmh WNW 17.0 mph27.4 kmh 30.04 in1017.3 mb 0.00 in0.0 mm 0.00 in0.0 mm 0.00 in0.0 mm
09:56 AM 48.0°F8.9°C 40.5°F4.7°C 75% 7.3 mph NW11.7 kmh NW 17.0 mph27.4 kmh 30.05 in1017.6 mb 0.00 in0.0 mm 0.00 in0.0 mm 0.00 in0.0 mm
10:01 AM 48.2°F9.0°C 40.7°F4.8°C 75% 5.6 mph WNW9.0 kmh WNW 15.0 mph24.1 kmh 30.05 in1017.6 mb 0.00 in0.0 mm 0.00 in0.0 mm 0.00 in0.0 mm
10:06 AM 48.4°F9.1°C 40.6°F4.8°C 74% 6.3 mph WNW10.1 kmh WNW 16.0 mph25.7 kmh 30.05 in1017.6 mb 0.00 in0.0 mm 0.00 in0.0 mm 0.00 in0.0 mm
10:11 AM 48.7°F9.3°C 40.5°F4.7°C 73% 5.3 mph WNW8.5 kmh WNW 16.0 mph25.7 kmh 30.05 in1017.6 mb 0.00 in0.0 mm 0.00 in0.0 mm 0.00 in0.0 mm
10:16 AM 48.8°F9.3°C 40.6°F4.8°C 73% 6.3 mph NW10.1 kmh NW 16.0 mph25.7 kmh 30.05 in1017.6 mb 0.00 in0.0 mm 0.00 in0.0 mm 0.00 in0.0 mm
10:21 AM 49.3°F9.6°C 41.0°F5.0°C 73% 4.2 mph WNW6.8 kmh WNW 15.0 mph24.1 kmh 30.05 in1017.6 mb 0.00 in0.0 mm 0.00 in0.0 mm 0.00 in0.0 mm
10:26 AM 49.6°F9.8°C 40.6°F4.8°C 71% 6.3 mph WNW10.1 kmh WNW 15.0 mph24.1 kmh 30.05 in1017.6 mb 0.00 in0.0 mm 0.00 in0.0 mm 0.00 in0.0 mm
10:31 AM 49.9°F9.9°C 40.6°F4.8°C 70% 5.4 mph WNW8.7 kmh WNW 14.0 mph22.5 kmh 30.06 in1017.9 mb 0.00 in0.0 mm 0.00 in0.0 mm 0.00 in0.0 mm
10:36 AM 50.0°F10.0°C 40.0°F4.4°C 68% 5.5 mph WNW8.9 kmh WNW 14.0 mph22.5 kmh 30.06 in1017.9 mb 0.00 in0.0 mm 0.00 in0.0 mm 0.00 in0.0 mm
10:41 AM 49.9°F9.9°C 40.2°F4.6°C 69% 5.7 mph WNW9.2 kmh WNW 14.0 mph22.5 kmh 30.06 in1017.9 mb 0.00 in0.0 mm 0.00 in0.0 mm 0.00 in0.0 mm
10:46 AM 50.1°F10.1°C 39.7°F4.3°C 67% 6.8 mph NW10.9 kmh NW 15.0 mph24.1 kmh 30.06 in1017.9 mb 0.00 in0.0 mm 0.00 in0.0 mm 0.00 in0.0 mm
10:51 AM 50.4°F10.2°C 40.0°F4.4°C 67% 5.3 mph WNW8.5 kmh WNW 15.0 mph24.1 kmh 30.06 in1017.9 mb 0.00 in0.0 mm 0.00 in0.0 mm 0.00 in0.0 mm
10:56 AM 50.5°F10.3°C 39.7°F4.3°C 66% 5.4 mph NW8.7 kmh NW 15.0 mph24.1 kmh 30.06 in1017.9 mb 0.00 in0.0 mm 0.00 in0.0 mm 0.00 in0.0 mm
11:01 AM 50.6°F10.3°C 40.0°F4.4°C 67% 7.4 mph WNW11.9 kmh WNW 15.0 mph24.1 kmh 30.06 in1017.9 mb 0.00 in0.0 mm 0.00 in0.0 mm 0.00 in0.0 mm
11:06 AM 51.0°F10.6°C 39.2°F4.0°C 64% 6.8 mph WNW10.9 kmh WNW 15.0 mph24.1 kmh 30.06 in1017.9 mb 0.00 in0.0 mm 0.00 in0.0 mm 0.00 in0.0 mm
11:11 AM 51.1°F10.6°C 39.5°F4.2°C 64% 8.4 mph WNW13.5 kmh WNW 16.0 mph25.7 kmh 30.05 in1017.6 mb 0.00 in0.0 mm 0.00 in0.0 mm 0.00 in0.0 mm
11:16 AM 51.2°F10.7°C 39.1°F3.9°C 63% 5.9 mph WNW9.5 kmh WNW 16.0 mph25.7 kmh 30.05 in1017.6 mb 0.00 in0.0 mm 0.00 in0.0 mm 0.00 in0.0 mm
11:21 AM 51.6°F10.9°C 39.5°F4.2°C 63% 7.9 mph WNW12.7 kmh WNW 16.0 mph25.7 kmh 30.05 in1017.6 mb 0.00 in0.0 mm 0.00 in0.0 mm 0.00 in0.0 mm
11:26 AM 51.7°F10.9°C 38.4°F3.6°C 60% 8.5 mph WNW13.7 kmh WNW 18.0 mph29.0 kmh 30.05 in1017.6 mb 0.00 in0.0 mm 0.00 in0.0 mm 0.00 in0.0 mm
11:31 AM 51.7°F10.9°C 38.4°F3.6°C 60% 7.8 mph NW12.6 kmh NW 18.0 mph29.0 kmh 30.04 in1017.3 mb 0.00 in0.0 mm 0.00 in0.0 mm 0.00 in0.0 mm
11:36 AM 52.1°F11.2°C 38.7°F3.7°C 60% 4.7 mph NW7.6 kmh NW 18.0 mph29.0 kmh 30.04 in1017.3 mb 0.00 in0.0 mm 0.00 in0.0 mm 0.00 in0.0 mm
11:41 AM 52.5°F11.4°C 38.7°F3.7°C 59% 5.1 mph WNW8.2 kmh WNW 18.0 mph29.0 kmh 30.04 in1017.3 mb 0.00 in0.0 mm 0.00 in0.0 mm 0.00 in0.0 mm
11:46 AM 52.8°F11.6°C 39.4°F4.1°C 60% 5.3 mph NW8.5 kmh NW 15.0 mph24.1 kmh 30.04 in1017.3 mb 0.00 in0.0 mm 0.00 in0.0 mm 0.00 in0.0 mm
11:51 AM 52.9°F11.6°C 38.6°F3.7°C 58% 8.7 mph NW14.0 kmh NW 15.0 mph24.1 kmh 30.04 in1017.3 mb 0.00 in0.0 mm 0.00 in0.0 mm 0.00 in0.0 mm
11:56 AM 53.0°F11.7°C 38.2°F3.4°C 57% 7.8 mph NW12.6 kmh NW 18.0 mph29.0 kmh 30.04 in1017.3 mb 0.00 in0.0 mm 0.00 in0.0 mm 0.00 in0.0 mm
12:01 PM 53.3°F11.8°C 38.1°F3.4°C 56% 5.4 mph NW8.7 kmh NW 18.0 mph29.0 kmh 30.03 in1016.9 mb 0.00 in0.0 mm 0.00 in0.0 mm 0.00 in0.0 mm
12:06 PM 53.7°F12.1°C 38.4°F3.6°C 56% 6.3 mph NW10.1 kmh NW 18.0 mph29.0 kmh 30.03 in1016.9 mb 0.00 in0.0 mm 0.00 in0.0 mm 0.00 in0.0 mm
12:11 PM 53.8°F12.1°C 38.5°F3.6°C 56% 6.3 mph NW10.1 kmh NW 13.0 mph20.9 kmh 30.03 in1016.9 mb 0.00 in0.0 mm 0.00 in0.0 mm 0.00 in0.0 mm
12:16 PM 54.1°F12.3°C 38.8°F3.8°C 56% 5.8 mph WNW9.3 kmh WNW 12.0 mph19.3 kmh 30.03 in1016.9 mb 0.00 in0.0 mm 0.00 in0.0 mm 0.00 in0.0 mm
12:21 PM 54.3°F12.4°C 38.0°F3.3°C 54% 5.8 mph NW9.3 kmh NW 15.0 mph24.1 kmh 30.03 in1016.9 mb 0.00 in0.0 mm 0.00 in0.0 mm 0.00 in0.0 mm
12:26 PM 54.4°F12.4°C 38.1°F3.4°C 54% 4.1 mph WNW6.6 kmh WNW 15.0 mph24.1 kmh 30.03 in1016.9 mb 0.00 in0.0 mm 0.00 in0.0 mm 0.00 in0.0 mm
12:30 PM 54.8°F12.7°C 38.5°F3.6°C 54% 7.3 mph NW11.7 kmh NW 15.0 mph24.1 kmh 30.03 in1016.9 mb 0.00 in0.0 mm 0.00 in0.0 mm 0.00 in0.0 mm
12:35 PM 55.0°F12.8°C 38.2°F3.4°C 53% 5.9 mph NW9.5 kmh NW 15.0 mph24.1 kmh 30.03 in1016.9 mb 0.00 in0.0 mm 0.00 in0.0 mm 0.00 in0.0 mm
12:40 PM 55.4°F13.0°C 38.1°F3.4°C 52% 7.2 mph WNW11.6 kmh WNW 14.0 mph22.5 kmh 30.03 in1016.9 mb 0.00 in0.0 mm 0.00 in0.0 mm 0.00 in0.0 mm
12:45 PM 55.6°F13.1°C 39.3°F4.1°C 54% 5.9 mph WNW9.5 kmh WNW 16.0 mph25.7 kmh 30.03 in1016.9 mb 0.00 in0.0 mm 0.00 in0.0 mm 0.00 in0.0 mm
12:50 PM 55.7°F13.2°C 37.9°F3.3°C 51% 5.9 mph WNW9.5 kmh WNW 17.0 mph27.4 kmh 30.02 in1016.6 mb 0.00 in0.0 mm 0.00 in0.0 mm 0.00 in0.0 mm
12:55 PM 55.7°F13.2°C 37.3°F2.9°C 50% 7.3 mph NW11.7 kmh NW 17.0 mph27.4 kmh 30.02 in1016.6 mb 0.00 in0.0 mm 0.00 in0.0 mm 0.00 in0.0 mm
01:00 PM 55.9°F13.3°C 37.0°F2.8°C 49% 8.4 mph NW13.5 kmh NW 20.0 mph32.2 kmh 30.02 in1016.6 mb 0.00 in0.0 mm 0.00 in0.0 mm 0.00 in0.0 mm
01:05 PM 56.3°F13.5°C 36.8°F2.7°C 48% 5.4 mph NW8.7 kmh NW 20.0 mph32.2 kmh 30.02 in1016.6 mb 0.00 in0.0 mm 0.00 in0.0 mm 0.00 in0.0 mm
01:10 PM 56.5°F13.6°C 36.5°F2.5°C 47% 7.9 mph NW12.7 kmh NW 20.0 mph32.2 kmh 30.02 in1016.6 mb 0.00 in0.0 mm 0.00 in0.0 mm 0.00 in0.0 mm
01:15 PM 56.7°F13.7°C 36.6°F2.6°C 47% 9.4 mph WNW15.1 kmh WNW 20.0 mph32.2 kmh 30.01 in1016.3 mb 0.00 in0.0 mm 0.00 in0.0 mm 0.00 in0.0 mm
01:20 PM 57.0°F13.9°C 36.3°F2.4°C 46% 9.5 mph NW15.3 kmh NW 16.0 mph25.7 kmh 30.01 in1016.3 mb 0.00 in0.0 mm 0.00 in0.0 mm 0.00 in0.0 mm
01:25 PM 57.0°F13.9°C 36.3°F2.4°C 46% 9.5 mph NW15.3 kmh NW 18.0 mph29.0 kmh 30.01 in1016.3 mb 0.00 in0.0 mm 0.00 in0.0 mm 0.00 in0.0 mm
01:30 PM 57.1°F13.9°C 37.0°F2.8°C 47% 5.4 mph WNW8.7 kmh WNW 18.0 mph29.0 kmh 30.01 in1016.3 mb 0.00 in0.0 mm 0.00 in0.0 mm 0.00 in0.0 mm
01:35 PM 57.4°F14.1°C 37.3°F2.9°C 47% 5.5 mph WNW8.9 kmh WNW 18.0 mph29.0 kmh 30.01 in1016.3 mb 0.00 in0.0 mm 0.00 in0.0 mm 0.00 in0.0 mm
01:40 PM 57.8°F14.3°C 37.1°F2.8°C 46% 3.5 mph WNW5.6 kmh WNW 18.0 mph29.0 kmh 30.01 in1016.3 mb 0.00 in0.0 mm 0.00 in0.0 mm 0.00 in0.0 mm
01:45 PM 57.8°F14.3°C 37.7°F3.2°C 47% 5.8 mph WNW9.3 kmh WNW 14.0 mph22.5 kmh 30.01 in1016.3 mb 0.00 in0.0 mm 0.00 in0.0 mm 0.00 in0.0 mm
01:50 PM 58.1°F14.5°C 36.2°F2.3°C 44% 7.3 mph NW11.7 kmh NW 14.0 mph22.5 kmh 30.01 in1016.3 mb 0.00 in0.0 mm 0.00 in0.0 mm 0.00 in0.0 mm
01:55 PM 58.3°F14.6°C 37.5°F3.1°C 46% 5.6 mph WNW9.0 kmh WNW 16.0 mph25.7 kmh 30.01 in1016.3 mb 0.00 in0.0 mm 0.00 in0.0 mm 0.00 in0.0 mm
02:00 PM 58.3°F14.6°C 37.0°F2.8°C 45% 9.8 mph WNW15.8 kmh WNW 18.0 mph29.0 kmh 30.01 in1016.3 mb 0.00 in0.0 mm 0.00 in0.0 mm 0.00 in0.0 mm
02:05 PM 58.4°F14.7°C 36.5°F2.5°C 44% 6.7 mph W10.8 kmh W 18.0 mph29.0 kmh 30.01 in1016.3 mb 0.00 in0.0 mm 0.00 in0.0 mm 0.00 in0.0 mm
02:10 PM 58.4°F14.7°C 37.1°F2.8°C 45% 7.2 mph WNW11.6 kmh WNW 18.0 mph29.0 kmh 30.01 in1016.3 mb 0.00 in0.0 mm 0.00 in0.0 mm 0.00 in0.0 mm
02:15 PM 58.9°F14.9°C 37.5°F3.1°C 45% 4.7 mph NW7.6 kmh NW 18.0 mph29.0 kmh 30.01 in1016.3 mb 0.00 in0.0 mm 0.00 in0.0 mm 0.00 in0.0 mm
02:20 PM 58.7°F14.8°C 36.7°F2.6°C 44% 7.8 mph W12.6 kmh W 17.0 mph27.4 kmh 30.01 in1016.3 mb 0.00 in0.0 mm 0.00 in0.0 mm 0.00 in0.0 mm
02:25 PM 58.7°F14.8°C 37.3°F2.9°C 45% 6.9 mph W11.1 kmh W 16.0 mph25.7 kmh 30.01 in1016.3 mb 0.00 in0.0 mm 0.00 in0.0 mm 0.00 in0.0 mm
02:31 PM 58.7°F14.8°C 36.7°F2.6°C 44% 7.4 mph W11.9 kmh W 16.0 mph25.7 kmh 30.01 in1016.3 mb 0.00 in0.0 mm 0.00 in0.0 mm 0.00 in0.0 mm
02:35 PM 59.0°F15.0°C 37.6°F3.1°C 45% 7.1 mph NW11.4 kmh NW 16.0 mph25.7 kmh 30.01 in1016.3 mb 0.00 in0.0 mm 0.00 in0.0 mm 0.00 in0.0 mm
02:40 PM 59.1°F15.1°C 37.1°F2.8°C 44% 4.8 mph NW7.7 kmh NW 15.0 mph24.1 kmh 30.02 in1016.6 mb 0.00 in0.0 mm 0.00 in0.0 mm 0.00 in0.0 mm
02:46 PM 59.6°F15.3°C 38.2°F3.4°C 45% 5.9 mph W9.5 kmh W 15.0 mph24.1 kmh 30.02 in1016.6 mb 0.00 in0.0 mm 0.00 in0.0 mm 0.00 in0.0 mm
02:51 PM 59.3°F15.2°C 37.3°F2.9°C 44% 6.2 mph WNW10.0 kmh WNW 15.0 mph24.1 kmh 30.02 in1016.6 mb 0.00 in0.0 mm 0.00 in0.0 mm 0.00 in0.0 mm
02:56 PM 59.6°F15.3°C 37.6°F3.1°C 44% 5.4 mph W8.7 kmh W 15.0 mph24.1 kmh 30.02 in1016.6 mb 0.00 in0.0 mm 0.00 in0.0 mm 0.00 in0.0 mm
03:01 PM 60.0°F15.6°C 37.9°F3.3°C 44% 6.7 mph WNW10.8 kmh WNW 15.0 mph24.1 kmh 30.03 in1016.9 mb 0.00 in0.0 mm 0.00 in0.0 mm 0.00 in0.0 mm
03:06 PM 60.0°F15.6°C 37.9°F3.3°C 44% 6.4 mph NW10.3 kmh NW 15.0 mph24.1 kmh 30.02 in1016.6 mb 0.00 in0.0 mm 0.00 in0.0 mm 0.00 in0.0 mm
03:11 PM 59.8°F15.4°C 37.7°F3.2°C 44% 4.0 mph WNW6.4 kmh WNW 13.0 mph20.9 kmh 30.02 in1016.6 mb 0.00 in0.0 mm 0.00 in0.0 mm 0.00 in0.0 mm
03:16 PM 60.0°F15.6°C 38.0°F3.3°C 44% 3.7 mph WNW6.0 kmh WNW 13.0 mph20.9 kmh 30.03 in1016.9 mb 0.00 in0.0 mm 0.00 in0.0 mm 0.00 in0.0 mm
03:21 PM 60.1°F15.6°C 38.7°F3.7°C 45% 3.6 mph W5.8 kmh W 13.0 mph20.9 kmh 30.03 in1016.9 mb 0.00 in0.0 mm 0.00 in0.0 mm 0.00 in0.0 mm
03:26 PM 60.4°F15.8°C 37.7°F3.2°C 43% 5.2 mph WNW8.4 kmh WNW 12.0 mph19.3 kmh 30.03 in1016.9 mb 0.00 in0.0 mm 0.00 in0.0 mm 0.00 in0.0 mm
03:31 PM 60.2°F15.7°C 37.5°F3.1°C 43% 8.6 mph W13.8 kmh W 13.0 mph20.9 kmh 30.03 in1016.9 mb 0.00 in0.0 mm 0.00 in0.0 mm 0.00 in0.0 mm
03:36 PM 60.3°F15.7°C 37.6°F3.1°C 43% 7.6 mph WNW12.2 kmh WNW 13.0 mph20.9 kmh 30.03 in1016.9 mb 0.00 in0.0 mm 0.00 in0.0 mm 0.00 in0.0 mm
03:41 PM 60.6°F15.9°C 38.5°F3.6°C 44% 3.3 mph W5.3 kmh W 13.0 mph20.9 kmh 30.04 in1017.3 mb 0.00 in0.0 mm 0.00 in0.0 mm 0.00 in0.0 mm
03:46 PM 60.8°F16.0°C 38.7°F3.7°C 44% 4.5 mph WNW7.2 kmh WNW 13.0 mph20.9 kmh 30.04 in1017.3 mb 0.00 in0.0 mm 0.00 in0.0 mm 0.00 in0.0 mm
03:51 PM 60.5°F15.8°C 37.8°F3.2°C 43% 6.2 mph WNW10.0 kmh WNW 15.0 mph24.1 kmh 30.04 in1017.3 mb 0.00 in0.0 mm 0.00 in0.0 mm 0.00 in0.0 mm
03:56 PM 60.5°F15.8°C 37.8°F3.2°C 43% 7.2 mph WNW11.6 kmh WNW 15.0 mph24.1 kmh 30.04 in1017.3 mb 0.00 in0.0 mm 0.00 in0.0 mm 0.00 in0.0 mm
04:01 PM 60.6°F15.9°C 37.9°F3.3°C 43% 7.0 mph W11.3 kmh W 15.0 mph24.1 kmh 30.04 in1017.3 mb 0.00 in0.0 mm 0.00 in0.0 mm 0.00 in0.0 mm
04:06 PM 60.7°F15.9°C 38.0°F3.3°C 43% 6.1 mph NW9.8 kmh NW 15.0 mph24.1 kmh 30.04 in1017.3 mb 0.00 in0.0 mm 0.00 in0.0 mm 0.00 in0.0 mm
04:11 PM 60.7°F15.9°C 38.0°F3.3°C 43% 8.5 mph NW13.7 kmh NW 15.0 mph24.1 kmh 30.04 in1017.3 mb 0.00 in0.0 mm 0.00 in0.0 mm 0.00 in0.0 mm
04:16 PM 60.7°F15.9°C 38.6°F3.7°C 44% 7.0 mph WNW11.3 kmh WNW 16.0 mph25.7 kmh 30.04 in1017.3 mb 0.00 in0.0 mm 0.00 in0.0 mm 0.00 in0.0 mm
04:21 PM 60.8°F16.0°C 38.7°F3.7°C 44% 4.4 mph WNW7.1 kmh WNW 16.0 mph25.7 kmh 30.04 in1017.3 mb 0.00 in0.0 mm 0.00 in0.0 mm 0.00 in0.0 mm
04:26 PM 60.9°F16.1°C 39.3°F4.1°C 45% 4.7 mph WNW7.6 kmh WNW 16.0 mph25.7 kmh 30.04 in1017.3 mb 0.00 in0.0 mm 0.00 in0.0 mm 0.00 in0.0 mm
04:31 PM 60.9°F16.1°C 38.2°F3.4°C 43% 6.1 mph W9.8 kmh W 16.0 mph25.7 kmh 30.05 in1017.6 mb 0.00 in0.0 mm 0.00 in0.0 mm 0.00 in0.0 mm
04:36 PM 60.7°F15.9°C 38.6°F3.7°C 44% 4.4 mph WNW7.1 kmh WNW 16.0 mph25.7 kmh 30.05 in1017.6 mb 0.00 in0.0 mm 0.00 in0.0 mm 0.00 in0.0 mm
04:41 PM 60.7°F15.9°C 38.1°F3.4°C 43% 6.1 mph W9.8 kmh W 16.0 mph25.7 kmh 30.05 in1017.6 mb 0.00 in0.0 mm 0.00 in0.0 mm 0.00 in0.0 mm
04:46 PM 60.6°F15.9°C 38.6°F3.7°C 44% 5.2 mph WNW8.4 kmh WNW 16.0 mph25.7 kmh 30.05 in1017.6 mb 0.00 in0.0 mm 0.00 in0.0 mm 0.00 in0.0 mm
04:51 PM 60.6°F15.9°C 38.5°F3.6°C 44% 5.1 mph WNW8.2 kmh WNW 16.0 mph25.7 kmh 30.05 in1017.6 mb 0.00 in0.0 mm 0.00 in0.0 mm 0.00 in0.0 mm
04:56 PM 60.6°F15.9°C 39.1°F3.9°C 45% 4.3 mph WNW6.9 kmh WNW 12.0 mph19.3 kmh 30.05 in1017.6 mb 0.00 in0.0 mm 0.00 in0.0 mm 0.00 in0.0 mm
05:01 PM 60.5°F15.8°C 39.0°F3.9°C 45% 4.1 mph WNW6.6 kmh WNW 12.0 mph19.3 kmh 30.05 in1017.6 mb 0.00 in0.0 mm 0.00 in0.0 mm 0.00 in0.0 mm
05:06 PM 60.3°F15.7°C 38.8°F3.8°C 45% 5.3 mph WNW8.5 kmh WNW 11.0 mph17.7 kmh 30.05 in1017.6 mb 0.00 in0.0 mm 0.00 in0.0 mm 0.00 in0.0 mm
05:11 PM 60.1°F15.6°C 38.6°F3.7°C 45% 4.5 mph WNW7.2 kmh WNW 12.0 mph19.3 kmh 30.06 in1017.9 mb 0.00 in0.0 mm 0.00 in0.0 mm 0.00 in0.0 mm
05:16 PM 60.0°F15.6°C 38.5°F3.6°C 45% 4.4 mph WNW7.1 kmh WNW 12.0 mph19.3 kmh 30.06 in1017.9 mb 0.00 in0.0 mm 0.00 in0.0 mm 0.00 in0.0 mm
05:21 PM 59.7°F15.4°C 38.2°F3.4°C 45% 5.2 mph WNW8.4 kmh WNW 12.0 mph19.3 kmh 30.06 in1017.9 mb 0.00 in0.0 mm 0.00 in0.0 mm 0.00 in0.0 mm
05:26 PM 59.4°F15.2°C 38.5°F3.6°C 46% 6.0 mph WNW9.7 kmh WNW 12.0 mph19.3 kmh 30.06 in1017.9 mb 0.00 in0.0 mm 0.00 in0.0 mm 0.00 in0.0 mm
05:31 PM 59.2°F15.1°C 38.4°F3.6°C 46% 5.2 mph WNW8.4 kmh WNW 12.0 mph19.3 kmh 30.06 in1017.9 mb 0.00 in0.0 mm 0.00 in0.0 mm 0.00 in0.0 mm
05:36 PM 58.9°F14.9°C 38.7°F3.7°C 47% 4.8 mph WNW7.7 kmh WNW 12.0 mph19.3 kmh 30.06 in1017.9 mb 0.00 in0.0 mm 0.00 in0.0 mm 0.00 in0.0 mm
05:41 PM 58.5°F14.7°C 38.3°F3.5°C 47% 3.6 mph WNW5.8 kmh WNW 12.0 mph19.3 kmh 30.07 in1018.3 mb 0.00 in0.0 mm 0.00 in0.0 mm 0.00 in0.0 mm
05:46 PM 58.3°F14.6°C 38.7°F3.7°C 48% 2.4 mph WNW3.9 kmh WNW 12.0 mph19.3 kmh 30.07 in1018.3 mb 0.00 in0.0 mm 0.00 in0.0 mm 0.00 in0.0 mm
05:51 PM 58.0°F14.4°C 38.4°F3.6°C 48% 2.3 mph NW3.7 kmh NW 8.0 mph12.9 kmh 30.07 in1018.3 mb 0.00 in0.0 mm 0.00 in0.0 mm 0.00 in0.0 mm
05:56 PM 57.8°F14.3°C 38.8°F3.8°C 49% 3.4 mph WNW5.5 kmh WNW 8.0 mph12.9 kmh 30.07 in1018.3 mb 0.00 in0.0 mm 0.00 in0.0 mm 0.00 in0.0 mm
06:01 PM 57.6°F14.2°C 38.6°F3.7°C 49% 3.8 mph WNW6.1 kmh WNW 8.0 mph12.9 kmh 30.07 in1018.3 mb 0.00 in0.0 mm 0.00 in0.0 mm 0.00 in0.0 mm
06:06 PM 57.5°F14.2°C 39.0°F3.9°C 50% 3.4 mph WNW5.5 kmh WNW 8.0 mph12.9 kmh 30.08 in1018.6 mb 0.00 in0.0 mm 0.00 in0.0 mm 0.00 in0.0 mm
06:11 PM 57.3°F14.1°C 38.8°F3.8°C 50% 3.1 mph WNW5.0 kmh WNW 9.0 mph14.5 kmh 30.08 in1018.6 mb 0.00 in0.0 mm 0.00 in0.0 mm 0.00 in0.0 mm
06:16 PM 57.1°F13.9°C 39.2°F4.0°C 51% 3.0 mph WNW4.8 kmh WNW 9.0 mph14.5 kmh 30.08 in1018.6 mb 0.00 in0.0 mm 0.00 in0.0 mm 0.00 in0.0 mm
06:21 PM 56.8°F13.8°C 38.9°F3.8°C 51% 3.2 mph WNW5.1 kmh WNW 9.0 mph14.5 kmh 30.08 in1018.6 mb 0.00 in0.0 mm 0.00 in0.0 mm 0.00 in0.0 mm
06:26 PM 56.6°F13.7°C 39.2°F4.0°C 52% 3.1 mph WNW5.0 kmh WNW 9.0 mph14.5 kmh 30.09 in1019.0 mb 0.00 in0.0 mm 0.00 in0.0 mm 0.00 in0.0 mm
06:31 PM 56.3°F13.5°C 39.4°F4.1°C 53% 2.5 mph WNW4.0 kmh WNW 7.0 mph11.3 kmh 30.09 in1019.0 mb 0.00 in0.0 mm 0.00 in0.0 mm 0.00 in0.0 mm
06:36 PM 56.1°F13.4°C 39.2°F4.0°C 53% 3.3 mph W5.3 kmh W 7.0 mph11.3 kmh 30.09 in1019.0 mb 0.00 in0.0 mm 0.00 in0.0 mm 0.00 in0.0 mm
06:41 PM 55.9°F13.3°C 39.5°F4.2°C 54% 3.4 mph W5.5 kmh W 7.0 mph11.3 kmh 30.09 in1019.0 mb 0.00 in0.0 mm 0.00 in0.0 mm 0.00 in0.0 mm
06:46 PM 55.7°F13.2°C 39.4°F4.1°C 54% 2.3 mph W3.7 kmh W 7.0 mph11.3 kmh 30.09 in1019.0 mb 0.00 in0.0 mm 0.00 in0.0 mm 0.00 in0.0 mm
06:51 PM 55.5°F13.1°C 39.7°F4.3°C 55% 3.6 mph W5.8 kmh W 10.0 mph16.1 kmh 30.09 in1019.0 mb 0.00 in0.0 mm 0.00 in0.0 mm 0.00 in0.0 mm
06:56 PM 55.4°F13.0°C 39.6°F4.2°C 55% 4.7 mph WNW7.6 kmh WNW 11.0 mph17.7 kmh 30.09 in1019.0 mb 0.00 in0.0 mm 0.00 in0.0 mm 0.00 in0.0 mm
07:01 PM 55.3°F12.9°C 39.5°F4.2°C 55% 3.8 mph WNW6.1 kmh WNW 11.0 mph17.7 kmh 30.10 in1019.3 mb 0.00 in0.0 mm 0.00 in0.0 mm 0.00 in0.0 mm
07:06 PM 55.2°F12.9°C 39.4°F4.1°C 55% 5.2 mph WNW8.4 kmh WNW 11.0 mph17.7 kmh 30.10 in1019.3 mb 0.00 in0.0 mm 0.00 in0.0 mm 0.00 in0.0 mm
07:11 PM 55.2°F12.9°C 39.4°F4.1°C 55% 4.7 mph WNW7.6 kmh WNW 11.0 mph17.7 kmh 30.10 in1019.3 mb 0.00 in0.0 mm 0.00 in0.0 mm 0.00 in0.0 mm
07:16 PM 55.3°F12.9°C 39.4°F4.1°C 55% 4.7 mph WNW7.6 kmh WNW 11.0 mph17.7 kmh 30.10 in1019.3 mb 0.00 in0.0 mm 0.00 in0.0 mm 0.00 in0.0 mm
07:21 PM 55.2°F12.9°C 39.4°F4.1°C 55% 5.4 mph WNW8.7 kmh WNW 11.0 mph17.7 kmh 30.10 in1019.3 mb 0.00 in0.0 mm 0.00 in0.0 mm 0.00 in0.0 mm
07:26 PM 55.2°F12.9°C 39.4°F4.1°C 55% 5.4 mph WNW8.7 kmh WNW 12.0 mph19.3 kmh 30.10 in1019.3 mb 0.00 in0.0 mm 0.00 in0.0 mm 0.00 in0.0 mm
07:31 PM 55.1°F12.8°C 39.3°F4.1°C 55% 6.3 mph WNW10.1 kmh WNW 12.0 mph19.3 kmh 30.10 in1019.3 mb 0.00 in0.0 mm 0.00 in0.0 mm 0.00 in0.0 mm
07:36 PM 55.0°F12.8°C 39.2°F4.0°C 55% 5.1 mph WNW8.2 kmh WNW 12.0 mph19.3 kmh 30.10 in1019.3 mb 0.00 in0.0 mm 0.00 in0.0 mm 0.00 in0.0 mm
07:41 PM 54.8°F12.7°C 39.5°F4.2°C 56% 3.4 mph WNW5.5 kmh WNW 12.0 mph19.3 kmh 30.10 in1019.3 mb 0.00 in0.0 mm 0.00 in0.0 mm 0.00 in0.0 mm
07:46 PM 54.5°F12.5°C 39.7°F4.3°C 57% 4.1 mph WNW6.6 kmh WNW 11.0 mph17.7 kmh 30.11 in1019.6 mb 0.00 in0.0 mm 0.00 in0.0 mm 0.00 in0.0 mm
07:51 PM 54.2°F12.3°C 39.3°F4.1°C 57% 4.9 mph WNW7.9 kmh WNW 11.0 mph17.7 kmh 30.11 in1019.6 mb 0.00 in0.0 mm 0.00 in0.0 mm 0.00 in0.0 mm
07:56 PM 54.1°F12.3°C 39.2°F4.0°C 57% 3.9 mph WNW6.3 kmh WNW 11.0 mph17.7 kmh 30.11 in1019.6 mb 0.00 in0.0 mm 0.00 in0.0 mm 0.00 in0.0 mm
08:01 PM 54.1°F12.3°C 39.3°F4.1°C 57% 4.8 mph WNW7.7 kmh WNW 11.0 mph17.7 kmh 30.11 in1019.6 mb 0.00 in0.0 mm 0.00 in0.0 mm 0.00 in0.0 mm
08:06 PM 54.1°F12.3°C 39.3°F4.1°C 57% 4.8 mph WNW7.7 kmh WNW 11.0 mph17.7 kmh 30.11 in1019.6 mb 0.00 in0.0 mm 0.00 in0.0 mm 0.00 in0.0 mm
08:11 PM 54.0°F12.2°C 39.6°F4.2°C 58% 3.9 mph WNW6.3 kmh WNW 10.0 mph16.1 kmh 30.11 in1019.6 mb 0.00 in0.0 mm 0.00 in0.0 mm 0.00 in0.0 mm
08:16 PM 54.0°F12.2°C 39.6°F4.2°C 58% 3.3 mph WNW5.3 kmh WNW 11.0 mph17.7 kmh 30.11 in1019.6 mb 0.00 in0.0 mm 0.00 in0.0 mm 0.00 in0.0 mm
08:21 PM 53.9°F12.2°C 39.5°F4.2°C 58% 3.5 mph WNW5.6 kmh WNW 11.0 mph17.7 kmh 30.11 in1019.6 mb 0.00 in0.0 mm 0.00 in0.0 mm 0.00 in0.0 mm
08:26 PM 53.8°F12.1°C 39.5°F4.2°C 58% 2.8 mph WNW4.5 kmh WNW 11.0 mph17.7 kmh 30.11 in1019.6 mb 0.00 in0.0 mm 0.00 in0.0 mm 0.00 in0.0 mm
08:30 PM 53.7°F12.1°C 39.3°F4.1°C 58% 3.2 mph WNW5.1 kmh WNW 11.0 mph17.7 kmh 30.11 in1019.6 mb 0.00 in0.0 mm 0.00 in0.0 mm 0.00 in0.0 mm
08:35 PM 53.5°F11.9°C 39.2°F4.0°C 58% 4.3 mph WNW6.9 kmh WNW 10.0 mph16.1 kmh 30.11 in1019.6 mb 0.00 in0.0 mm 0.00 in0.0 mm 0.00 in0.0 mm
08:40 PM 53.4°F11.9°C 39.5°F4.2°C 59% 4.1 mph WNW6.6 kmh WNW 10.0 mph16.1 kmh 30.11 in1019.6 mb 0.00 in0.0 mm 0.00 in0.0 mm 0.00 in0.0 mm
08:45 PM 53.2°F11.8°C 39.3°F4.1°C 59% 3.4 mph WNW5.5 kmh WNW 10.0 mph16.1 kmh 30.12 in1020.0 mb 0.00 in0.0 mm 0.00 in0.0 mm 0.00 in0.0 mm
08:50 PM 53.0°F11.7°C 39.6°F4.2°C 60% 3.2 mph WNW5.1 kmh WNW 8.0 mph12.9 kmh 30.12 in1020.0 mb 0.00 in0.0 mm 0.00 in0.0 mm 0.00 in0.0 mm
08:55 PM 52.9°F11.6°C 39.5°F4.2°C 60% 3.2 mph WNW5.1 kmh WNW 8.0 mph12.9 kmh 30.12 in1020.0 mb 0.00 in0.0 mm 0.00 in0.0 mm 0.00 in0.0 mm
09:00 PM 52.7°F11.5°C 39.7°F4.3°C 61% 2.9 mph WNW4.7 kmh WNW 7.0 mph11.3 kmh 30.12 in1020.0 mb 0.00 in0.0 mm 0.00 in0.0 mm 0.00 in0.0 mm
09:05 PM 52.7°F11.5°C 39.7°F4.3°C 61% 3.9 mph W6.3 kmh W 8.0 mph12.9 kmh 30.12 in1020.0 mb 0.00 in0.0 mm 0.00 in0.0 mm 0.00 in0.0 mm
09:10 PM 52.4°F11.3°C 39.4°F4.1°C 61% 2.1 mph W3.4 kmh W 8.0 mph12.9 kmh 30.12 in1020.0 mb 0.00 in0.0 mm 0.00 in0.0 mm 0.00 in0.0 mm
09:15 PM 52.1°F11.2°C 39.6°F4.2°C 62% 3.1 mph W5.0 kmh W 8.0 mph12.9 kmh 30.12 in1020.0 mb 0.00 in0.0 mm 0.00 in0.0 mm 0.00 in0.0 mm
09:20 PM 51.8°F11.0°C 39.6°F4.2°C 63% 2.2 mph W3.5 kmh W 8.0 mph12.9 kmh 30.12 in1020.0 mb 0.00 in0.0 mm 0.00 in0.0 mm 0.00 in0.0 mm
09:25 PM 51.6°F10.9°C 39.5°F4.2°C 63% 2.4 mph W3.9 kmh W 7.0 mph11.3 kmh 30.12 in1020.0 mb 0.00 in0.0 mm 0.00 in0.0 mm 0.00 in0.0 mm
09:30 PM 51.4°F10.8°C 39.7°F4.3°C 64% 2.8 mph W4.5 kmh W 7.0 mph11.3 kmh 30.12 in1020.0 mb 0.00 in0.0 mm 0.00 in0.0 mm 0.00 in0.0 mm
09:35 PM 51.4°F10.8°C 39.7°F4.3°C 64% 3.1 mph W5.0 kmh W 8.0 mph12.9 kmh 30.12 in1020.0 mb 0.00 in0.0 mm 0.00 in0.0 mm 0.00 in0.0 mm
09:40 PM 51.2°F10.7°C 39.6°F4.2°C 64% 2.7 mph W4.3 kmh W 8.0 mph12.9 kmh 30.12 in1020.0 mb 0.00 in0.0 mm 0.00 in0.0 mm 0.00 in0.0 mm
09:45 PM 51.1°F10.6°C 39.7°F4.3°C 65% 3.0 mph W4.8 kmh W 8.0 mph12.9 kmh 30.12 in1020.0 mb 0.00 in0.0 mm 0.00 in0.0 mm 0.00 in0.0 mm
09:50 PM 51.0°F10.6°C 39.8°F4.3°C 65% 3.0 mph W4.8 kmh W 7.0 mph11.3 kmh 30.12 in1020.0 mb 0.00 in0.0 mm 0.00 in0.0 mm 0.00 in0.0 mm
09:55 PM 50.9°F10.5°C 39.7°F4.3°C 65% 3.6 mph W5.8 kmh W 7.0 mph11.3 kmh 30.12 in1020.0 mb 0.00 in0.0 mm 0.00 in0.0 mm 0.00 in0.0 mm
10:00 PM 50.7°F10.4°C 39.5°F4.2°C 65% 3.3 mph WNW5.3 kmh WNW 7.0 mph11.3 kmh 30.12 in1020.0 mb 0.00 in0.0 mm 0.00 in0.0 mm 0.00 in0.0 mm
10:05 PM 50.6°F10.3°C 39.7°F4.3°C 66% 2.9 mph W4.7 kmh W 8.0 mph12.9 kmh 30.12 in1020.0 mb 0.00 in0.0 mm 0.00 in0.0 mm 0.00 in0.0 mm
10:10 PM 50.5°F10.3°C 39.6°F4.2°C 66% 3.7 mph WNW6.0 kmh WNW 8.0 mph12.9 kmh 30.12 in1020.0 mb 0.00 in0.0 mm 0.00 in0.0 mm 0.00 in0.0 mm
10:15 PM 50.4°F10.2°C 39.6°F4.2°C 66% 2.9 mph WNW4.7 kmh WNW 8.0 mph12.9 kmh 30.12 in1020.0 mb 0.00 in0.0 mm 0.00 in0.0 mm 0.00 in0.0 mm
10:20 PM 50.5°F10.3°C 39.7°F4.3°C 66% 4.4 mph WNW7.1 kmh WNW 10.0 mph16.1 kmh 30.12 in1020.0 mb 0.00 in0.0 mm 0.00 in0.0 mm 0.00 in0.0 mm
10:25 PM 50.5°F10.3°C 39.7°F4.3°C 66% 3.1 mph WNW5.0 kmh WNW 10.0 mph16.1 kmh 30.12 in1020.0 mb 0.00 in0.0 mm 0.00 in0.0 mm 0.00 in0.0 mm
10:30 PM 50.4°F10.2°C 39.9°F4.4°C 67% 2.7 mph WNW4.3 kmh WNW 10.0 mph16.1 kmh 30.12 in1020.0 mb 0.00 in0.0 mm 0.00 in0.0 mm 0.00 in0.0 mm
10:35 PM 50.3°F10.2°C 39.9°F4.4°C 67% 2.0 mph WNW3.2 kmh WNW 10.0 mph16.1 kmh 30.12 in1020.0 mb 0.00 in0.0 mm 0.00 in0.0 mm 0.00 in0.0 mm
10:40 PM 50.3°F10.2°C 39.9°F4.4°C 67% 3.0 mph WNW4.8 kmh WNW 7.0 mph11.3 kmh 30.12 in1020.0 mb 0.00 in0.0 mm 0.00 in0.0 mm 0.00 in0.0 mm
10:45 PM 50.3°F10.2°C 39.9°F4.4°C 67% 2.4 mph WNW3.9 kmh WNW 7.0 mph11.3 kmh 30.12 in1020.0 mb 0.00 in0.0 mm 0.00 in0.0 mm 0.00 in0.0 mm
10:50 PM 50.2°F10.1°C 39.8°F4.3°C 67% 2.3 mph WNW3.7 kmh WNW 5.0 mph8.0 kmh 30.12 in1020.0 mb 0.00 in0.0 mm 0.00 in0.0 mm 0.00 in0.0 mm
10:55 PM 50.2°F10.1°C 39.8°F4.3°C 67% 2.8 mph WNW4.5 kmh WNW 6.0 mph9.7 kmh 30.12 in1020.0 mb 0.00 in0.0 mm 0.00 in0.0 mm 0.00 in0.0 mm
11:00 PM 50.1°F10.1°C 39.6°F4.2°C 67% 1.5 mph W2.4 kmh W 6.0 mph9.7 kmh 30.12 in1020.0 mb 0.00 in0.0 mm 0.00 in0.0 mm 0.00 in0.0 mm
11:05 PM 49.9°F9.9°C 39.8°F4.3°C 68% 1.7 mph WNW2.7 kmh WNW 6.0 mph9.7 kmh 30.13 in1020.3 mb 0.00 in0.0 mm 0.00 in0.0 mm 0.00 in0.0 mm
11:10 PM 50.0°F10.0°C 40.0°F4.4°C 68% 2.1 mph WNW3.4 kmh WNW 6.0 mph9.7 kmh 30.13 in1020.3 mb 0.00 in0.0 mm 0.00 in0.0 mm 0.00 in0.0 mm
11:15 PM 49.9°F9.9°C 39.9°F4.4°C 68% 1.8 mph NW2.9 kmh NW 5.0 mph8.0 kmh 30.12 in1020.0 mb 0.00 in0.0 mm 0.00 in0.0 mm 0.00 in0.0 mm
11:20 PM 49.8°F9.9°C 39.8°F4.3°C 68% 1.9 mph NW3.1 kmh NW 5.0 mph8.0 kmh 30.12 in1020.0 mb 0.00 in0.0 mm 0.00 in0.0 mm 0.00 in0.0 mm
11:25 PM 49.8°F9.9°C 39.8°F4.3°C 68% 1.4 mph NW2.3 kmh NW 5.0 mph8.0 kmh 30.12 in1020.0 mb 0.00 in0.0 mm 0.00 in0.0 mm 0.00 in0.0 mm
11:30 PM 49.8°F9.9°C 39.8°F4.3°C 68% 2.0 mph NW3.2 kmh NW 5.0 mph8.0 kmh 30.12 in1020.0 mb 0.00 in0.0 mm 0.00 in0.0 mm 0.00 in0.0 mm
11:35 PM 49.8°F9.9°C 39.8°F4.3°C 68% 2.1 mph NW3.4 kmh NW 5.0 mph8.0 kmh 30.12 in1020.0 mb 0.00 in0.0 mm 0.00 in0.0 mm 0.00 in0.0 mm
11:40 PM 49.8°F9.9°C 39.8°F4.3°C 68% 1.6 mph WNW2.6 kmh WNW 5.0 mph8.0 kmh 30.12 in1020.0 mb 0.00 in0.0 mm 0.00 in0.0 mm 0.00 in0.0 mm
11:45 PM 49.9°F9.9°C 39.9°F4.4°C 68% 2.1 mph NW3.4 kmh NW 5.0 mph8.0 kmh 30.12 in1020.0 mb 0.00 in0.0 mm 0.00 in0.0 mm 0.00 in0.0 mm
11:50 PM 49.9°F9.9°C 39.9°F4.4°C 68% 1.8 mph NW2.9 kmh NW 5.0 mph8.0 kmh 30.11 in1019.6 mb 0.00 in0.0 mm 0.00 in0.0 mm 0.00 in0.0 mm
11:55 PM 49.9°F9.9°C 39.9°F4.4°C 68% 2.3 mph NW3.7 kmh NW 5.0 mph8.0 kmh 30.12 in1020.0 mb 0.00 in0.0 mm 0.00 in0.0 mm 0.00 in0.0 mm